Time;durP1;ratioP1;P1;durP2;ratioP2;P2;SDS_P1;SDS_P2;PMS_P1;PMS_P2;Temp;Humidity;BMP_temperature;BMP_pressure;BME280_temperature;BME280_humidity;BME280_pressure;Samples;Min_cycle;Max_cycle;Signal;HPM_P1;HPM_P2
2021/11/14 00:01:44;;;;;;;106.63;58.42;;;11.30;92.40;;;;;;4956244;28;20054;-72
2021/11/14 00:04:12;;;;;;;97.32;53.40;;;11.30;92.30;;;;;;4954428;29;20578;-73
2021/11/14 00:06:39;;;;;;;106.68;56.08;;;11.30;92.30;;;;;;4960193;28;20052;-75
2021/11/14 00:09:06;;;;;;;100.82;53.05;;;11.30;92.20;;;;;;4954262;28;20043;-77
2021/11/14 00:11:33;;;;;;;91.40;52.30;;;11.30;92.20;;;;;;4954618;28;20051;-71
2021/11/14 00:14:01;;;;;;;93.28;51.90;;;11.30;92.20;;;;;;4962273;28;20051;-75
2021/11/14 00:16:29;;;;;;;100.72;54.58;;;11.30;92.20;;;;;;4958919;28;20047;-77
2021/11/14 00:18:57;;;;;;;97.30;54.33;;;11.30;92.20;;;;;;4970267;28;20415;-76
2021/11/14 00:21:26;;;;;;;110.85;57.85;;;11.30;92.20;;;;;;4957035;28;20058;-75
2021/11/14 00:23:54;;;;;;;92.53;50.55;;;11.30;92.10;;;;;;4958550;28;20047;-72
2021/11/14 00:26:22;;;;;;;90.10;51.08;;;11.30;92.10;;;;;;4962936;28;20076;-75
2021/11/14 00:28:49;;;;;;;91.18;52.40;;;11.30;92.00;;;;;;4961979;28;20075;-77
2021/11/14 00:31:20;;;;;;;98.72;54.08;;;11.40;92.10;;;;;;4956422;28;20126;-72
2021/11/14 00:33:48;;;;;;;93.32;50.80;;;11.30;92.10;;;;;;4963090;28;20106;-76
2021/11/14 00:36:23;;;;;;;94.82;51.35;;;11.30;92.00;;;;;;4956814;28;20051;-72
2021/11/14 00:38:51;;;;;;;94.20;51.80;;;11.40;92.00;;;;;;4982463;28;20053;-76
2021/11/14 00:41:20;;;;;;;100.25;52.28;;;11.40;92.00;;;;;;4965313;28;20410;-71
2021/11/14 00:43:48;;;;;;;90.03;52.22;;;11.30;91.90;;;;;;4967255;28;20050;-77
2021/11/14 00:46:15;;;;;;;86.05;49.28;;;11.30;91.90;;;;;;4969148;28;20078;-76
2021/11/14 00:48:43;;;;;;;94.78;51.60;;;11.40;91.90;;;;;;4981003;28;20065;-72
2021/11/14 00:51:13;;;;;;;104.07;55.17;;;11.30;91.90;;;;;;4961992;28;20047;-72
2021/11/14 00:53:40;;;;;;;90.95;49.95;;;11.30;92.00;;;;;;4958913;28;20475;-75
2021/11/14 00:56:08;;;;;;;94.13;51.65;;;11.30;92.10;;;;;;4956958;28;20388;-75
2021/11/14 00:58:35;;;;;;;96.47;51.80;;;11.30;92.10;;;;;;4964750;28;20074;-71
2021/11/14 01:01:03;;;;;;;100.63;53.63;;;11.30;92.00;;;;;;4962985;28;20435;-75
2021/11/14 01:03:30;;;;;;;95.63;53.15;;;11.30;92.00;;;;;;4958617;28;20054;-75
2021/11/14 01:05:57;;;;;;;104.78;53.53;;;11.30;91.90;;;;;;4963505;28;20054;-76
2021/11/14 01:08:28;;;;;;;103.20;53.33;;;11.30;92.00;;;;;;4961998;28;20090;-75
2021/11/14 01:10:57;;;;;;;101.95;54.22;;;11.30;91.90;;;;;;4957601;28;20393;-76
2021/11/14 01:13:25;;;;;;;101.03;51.55;;;11.30;92.00;;;;;;4959671;28;20039;-71
2021/11/14 01:15:52;;;;;;;95.55;51.92;;;11.30;92.00;;;;;;4957431;28;20118;-71
2021/11/14 01:18:21;;;;;;;96.15;51.63;;;11.30;92.00;;;;;;4962150;28;20412;-77
2021/11/14 01:20:52;;;;;;;113.97;59.00;;;11.30;92.00;;;;;;4961102;28;20055;-72
2021/11/14 01:23:20;;;;;;;97.47;52.13;;;11.30;92.20;;;;;;4955680;28;20043;-72
2021/11/14 01:25:48;;;;;;;103.85;54.70;;;11.30;92.10;;;;;;4955670;28;20055;-71
2021/11/14 01:28:17;;;;;;;95.45;52.55;;;11.30;92.20;;;;;;4972280;28;20039;-76
2021/11/14 01:30:48;;;;;;;98.15;53.53;;;11.30;92.20;;;;;;4965070;28;20047;-72
2021/11/14 01:33:16;;;;;;;95.70;52.85;;;11.30;92.30;;;;;;4965857;28;20410;-76
2021/11/14 01:35:44;;;;;;;86.75;49.17;;;11.30;92.20;;;;;;4958179;28;20039;-72
2021/11/14 01:38:12;;;;;;;110.25;57.67;;;11.20;92.10;;;;;;4958370;28;20043;-72
2021/11/14 01:40:55;;;;;;;97.13;53.63;;;11.30;92.30;;;;;;4955223;28;20419;-71
2021/11/14 01:43:35;;;;;;;97.30;52.78;;;11.20;92.50;;;;;;4968345;28;20108;-75
2021/11/14 01:46:03;;;;;;;103.40;53.70;;;11.20;92.50;;;;;;4972872;28;20418;-72
2021/11/14 01:48:31;;;;;;;96.43;52.67;;;11.20;92.50;;;;;;4963805;28;20059;-72
2021/11/14 01:50:58;;;;;;;109.38;57.13;;;11.20;92.50;;;;;;4965189;28;20153;-75
2021/11/14 01:53:26;;;;;;;99.15;53.90;;;11.20;92.60;;;;;;4956167;28;20648;-71
2021/11/14 01:55:54;;;;;;;99.00;53.60;;;11.20;92.60;;;;;;4948508;28;20095;-71
2021/11/14 01:58:24;;;;;;;109.50;57.92;;;11.20;92.60;;;;;;4957881;28;20114;-75
2021/11/14 02:00:56;;;;;;;129.75;63.53;;;11.10;92.60;;;;;;4964323;28;20639;-75
2021/11/14 02:03:25;;;;;;;116.68;59.00;;;11.20;92.80;;;;;;4972583;28;20051;-75
2021/11/14 02:05:52;;;;;;;113.60;58.65;;;11.10;92.90;;;;;;4952788;28;20424;-76
2021/11/14 02:08:20;;;;;;;111.38;57.83;;;11.10;92.90;;;;;;4963411;28;20486;-76
2021/11/14 02:10:48;;;;;;;109.47;57.30;;;11.10;92.90;;;;;;4964617;28;20039;-72
2021/11/14 02:13:15;;;;;;;115.78;56.97;;;11.10;92.80;;;;;;4960302;28;20035;-71
2021/11/14 02:15:42;;;;;;;110.07;56.47;;;11.10;92.80;;;;;;4949586;28;20452;-71
2021/11/14 02:18:12;;;;;;;112.25;60.30;;;11.10;92.70;;;;;;4958166;28;20043;-75
2021/11/14 02:20:40;;;;;;;120.75;61.33;;;11.10;92.70;;;;;;4960318;28;20460;-71
2021/11/14 02:23:09;;;;;;;110.40;57.78;;;11.10;92.90;;;;;;4960948;28;20074;-76
2021/11/14 02:25:37;;;;;;;120.93;59.45;;;11.10;93.20;;;;;;4949642;28;20051;-72
2021/11/14 02:28:04;;;;;;;126.13;60.40;;;11.10;93.00;;;;;;4962801;28;20403;-77
2021/11/14 02:30:32;;;;;;;117.05;58.90;;;11.10;93.00;;;;;;4975954;28;20094;-77
2021/11/14 02:32:59;;;;;;;105.22;55.78;;;11.10;93.00;;;;;;4974512;28;20142;-71
2021/11/14 02:35:43;;;;;;;96.72;54.47;;;11.10;93.00;;;;;;4955319;28;20050;-75
2021/11/14 02:38:11;;;;;;;104.95;54.72;;;11.10;93.00;;;;;;4969704;28;20046;-75
2021/11/14 02:40:39;;;;;;;97.22;52.38;;;11.00;93.00;;;;;;4960267;28;20063;-72
2021/11/14 02:43:06;;;;;;;97.45;49.72;;;11.00;92.90;;;;;;4961180;28;20053;-71
2021/11/14 02:45:32;;;;;;;99.43;52.13;;;11.10;92.90;;;;;;4972231;28;20053;-71
2021/11/14 02:48:00;;;;;;;95.90;50.92;;;11.10;92.80;;;;;;4965758;28;20051;-74
2021/11/14 02:50:27;;;;;;;101.88;54.97;;;11.10;92.80;;;;;;4960004;28;20051;-75
2021/11/14 02:52:54;;;;;;;99.75;52.50;;;11.10;92.70;;;;;;4956029;28;20043;-76
2021/11/14 02:55:23;;;;;;;87.78;48.20;;;11.10;92.70;;;;;;4966170;28;20044;-71
2021/11/14 02:57:52;;;;;;;78.10;42.28;;;11.10;92.60;;;;;;4974283;28;20089;-75
2021/11/14 03:00:27;;;;;;;74.93;40.25;;;11.10;92.40;;;;;;4961113;28;20411;-76
2021/11/14 03:02:54;;;;;;;69.15;38.53;;;11.00;92.30;;;;;;4957735;28;20094;-75
2021/11/14 03:05:22;;;;;;;63.20;36.30;;;11.00;92.30;;;;;;4969837;28;20125;-75
2021/11/14 03:07:50;;;;;;;52.28;31.80;;;11.00;92.10;;;;;;4951278;28;20044;-71
2021/11/14 03:10:22;;;;;;;48.05;28.73;;;11.00;91.70;;;;;;4950167;28;20095;-71
2021/11/14 03:12:54;;;;;;;45.93;27.07;;;11.00;91.40;;;;;;4956427;28;20099;-76
2021/11/14 03:15:21;;;;;;;47.58;25.45;;;10.90;91.30;;;;;;4955263;28;20039;-71
2021/11/14 03:17:48;;;;;;;39.22;25.25;;;10.90;91.10;;;;;;4957373;28;20047;-71
2021/11/14 03:20:15;;;;;;;41.45;25.15;;;10.90;91.10;;;;;;4971426;28;20055;-71
2021/11/14 03:22:42;;;;;;;35.17;22.95;;;10.80;91.00;;;;;;4959820;28;20538;-71
2021/11/14 03:25:09;;;;;;;31.52;20.95;;;10.80;90.70;;;;;;4965809;28;20470;-71
2021/11/14 03:27:36;;;;;;;35.85;22.45;;;10.80;90.30;;;;;;4958710;28;20426;-71
2021/11/14 03:30:05;;;;;;;35.05;21.67;;;10.70;90.10;;;;;;4956060;28;20055;-75
2021/11/14 03:32:32;;;;;;;32.15;20.05;;;10.70;90.20;;;;;;4961171;28;20070;-72
2021/11/14 03:34:59;;;;;;;30.35;18.75;;;10.70;89.90;;;;;;4959397;28;20039;-74
2021/11/14 03:37:26;;;;;;;25.23;17.50;;;10.60;89.40;;;;;;4957754;28;20062;-76
2021/11/14 03:39:53;;;;;;;23.60;15.88;;;10.60;89.20;;;;;;4964920;28;20117;-75
2021/11/14 03:42:20;;;;;;;24.50;15.10;;;10.50;88.50;;;;;;4954981;28;20055;-75
2021/11/14 03:44:47;;;;;;;25.00;15.07;;;10.60;87.40;;;;;;4952814;28;20496;-72
2021/11/14 03:47:14;;;;;;;25.33;14.73;;;10.50;87.70;;;;;;4951825;28;20460;-76
2021/11/14 03:49:41;;;;;;;22.90;13.93;;;10.40;87.00;;;;;;4958915;28;20051;-72
2021/11/14 03:52:10;;;;;;;21.60;14.50;;;10.40;87.00;;;;;;4956205;28;20492;-71
2021/11/14 03:54:38;;;;;;;22.42;13.63;;;10.40;87.10;;;;;;4959028;28;20101;-71
2021/11/14 03:57:23;;;;;;;24.42;13.80;;;10.30;87.50;;;;;;4958722;28;20043;-72
2021/11/14 03:59:50;;;;;;;22.15;14.40;;;10.30;87.40;;;;;;4960693;28;20047;-76
2021/11/14 04:02:17;;;;;;;19.50;13.25;;;10.20;87.00;;;;;;4959968;28;20558;-75
2021/11/14 04:04:44;;;;;;;;;;;10.20;86.90;;;;;;4981208;28;20047;-75
2021/11/14 04:07:12;;;;;;;;;;;10.20;86.30;;;;;;4962219;28;19923;-77
2021/11/14 04:09:39;;;;;;;;;;;10.20;86.40;;;;;;4962459;28;19923;-71
2021/11/14 04:12:06;;;;;;;23.98;13.45;;;10.20;86.30;;;;;;4958321;28;19922;-75
2021/11/14 04:14:34;;;;;;;23.75;13.15;;;10.20;86.20;;;;;;4965129;28;20047;-77
2021/11/14 04:17:00;;;;;;;18.97;13.80;;;10.10;85.90;;;;;;4960423;28;20843;-71
2021/11/14 04:19:27;;;;;;;20.90;12.52;;;10.20;85.50;;;;;;4960738;28;20827;-72
2021/11/14 04:21:55;;;;;;;20.05;11.73;;;10.20;85.60;;;;;;4975479;28;20456;-71
2021/11/14 04:24:22;;;;;;;20.38;13.32;;;10.20;85.00;;;;;;4958034;28;20040;-71
2021/11/14 04:26:49;;;;;;;20.80;13.15;;;10.20;85.50;;;;;;4970706;28;20451;-75
2021/11/14 04:29:16;;;;;;;19.63;13.20;;;10.10;85.80;;;;;;4970144;28;20057;-71
2021/11/14 04:31:43;;;;;;;20.65;12.93;;;10.10;85.50;;;;;;4953551;28;20050;-76
2021/11/14 04:34:10;;;;;;;18.08;11.57;;;10.10;85.00;;;;;;4956226;28;20054;-75
2021/11/14 04:36:37;;;;;;;21.40;12.20;;;10.10;85.00;;;;;;4956582;28;20043;-76
2021/11/14 04:39:05;;;;;;;18.88;12.05;;;10.10;85.10;;;;;;4960638;28;20047;-72
2021/11/14 04:41:32;;;;;;;18.65;11.85;;;10.00;85.00;;;;;;4962699;28;20047;-75
2021/11/14 04:43:59;;;;;;;20.88;12.73;;;10.00;85.00;;;;;;4960533;28;20055;-76
2021/11/14 04:46:26;;;;;;;20.55;12.98;;;10.00;86.30;;;;;;4958186;28;20051;-76
2021/11/14 04:48:53;;;;;;;19.48;12.55;;;10.00;85.60;;;;;;4971652;28;20411;-75
2021/11/14 04:51:21;;;;;;;21.55;13.00;;;9.90;86.20;;;;;;4963025;28;20094;-74
2021/11/14 04:53:48;;;;;;;20.38;12.88;;;9.90;86.40;;;;;;4960542;28;20292;-75
2021/11/14 04:56:16;;;;;;;23.08;12.98;;;9.90;85.80;;;;;;4956871;29;20047;-76
2021/11/14 04:58:44;;;;;;;18.73;11.90;;;9.90;86.10;;;;;;4962301;28;20062;-71
2021/11/14 05:01:11;;;;;;;;;;;9.90;84.10;;;;;;4965839;28;20506;-75
2021/11/14 05:03:38;;;;;;;15.75;10.70;;;10.00;83.00;;;;;;4958103;28;19977;-76
2021/11/14 05:06:09;;;;;;;19.27;11.38;;;9.90;83.60;;;;;;4961767;28;20055;-76
2021/11/14 05:08:37;;;;;;;16.20;10.88;;;9.90;83.80;;;;;;4970469;28;20385;-75
2021/11/14 05:11:04;;;;;;;16.85;10.63;;;9.80;83.60;;;;;;4968089;28;20042;-76
2021/11/14 05:13:30;;;;;;;14.13;9.80;;;9.80;84.20;;;;;;4960458;28;20036;-71
2021/11/14 05:15:57;;;;;;;16.63;10.57;;;9.70;83.30;;;;;;4957258;28;20062;-77
2021/11/14 05:18:24;;;;;;;;;;;9.70;83.00;;;;;;4948289;28;20472;-71
2021/11/14 05:20:51;;;;;;;18.80;10.68;;;9.70;83.00;;;;;;4956310;28;19969;-77
2021/11/14 05:23:18;;;;;;;14.52;10.43;;;9.70;82.90;;;;;;4961353;28;20039;-77
2021/11/14 05:25:46;;;;;;;16.48;10.88;;;9.60;83.30;;;;;;4970466;28;20463;-76
2021/11/14 05:28:14;;;;;;;18.75;11.85;;;9.60;83.90;;;;;;4965284;28;20045;-75
2021/11/14 05:30:41;;;;;;;19.40;11.40;;;9.50;84.30;;;;;;4962234;28;20062;-71
2021/11/14 05:33:08;;;;;;;15.55;10.32;;;9.50;84.30;;;;;;4959924;28;20055;-70
2021/11/14 05:35:35;;;;;;;15.75;10.35;;;9.50;83.80;;;;;;4956536;28;20443;-71
2021/11/14 05:38:02;;;;;;;14.93;9.98;;;9.50;83.60;;;;;;4968252;28;20101;-70
2021/11/14 05:40:29;;;;;;;15.48;9.43;;;9.50;83.70;;;;;;4962993;28;20047;-71
2021/11/14 05:42:56;;;;;;;15.13;9.32;;;9.50;83.10;;;;;;4981192;28;20043;-75
2021/11/14 05:45:24;;;;;;;16.33;10.32;;;9.50;82.50;;;;;;4960526;28;20062;-70
2021/11/14 05:47:51;;;;;;;16.02;10.40;;;9.50;83.50;;;;;;4957480;28;20055;-71
2021/11/14 05:50:19;;;;;;;15.05;9.40;;;9.50;82.10;;;;;;4979729;28;20043;-71
2021/11/14 05:52:46;;;;;;;15.18;10.35;;;9.50;83.10;;;;;;4964780;28;20048;-75
2021/11/14 05:55:13;;;;;;;11.85;8.85;;;9.50;83.30;;;;;;4956298;28;20066;-70
2021/11/14 06:00:50;;;;;;;13.20;9.38;;;9.50;81.70;;;;;;4941344;29;20210;-75
2021/11/14 06:05:56;;;;;;;14.82;9.48;;;9.50;81.40;;;;;;4946934;28;20110;-74
2021/11/14 06:08:23;;;;;;;13.63;8.32;;;9.50;81.70;;;;;;4967279;28;20047;-75
2021/11/14 06:10:54;;;;;;;13.93;9.30;;;9.50;82.10;;;;;;4960756;28;20094;-70
2021/11/14 06:13:23;;;;;;;13.48;9.00;;;9.50;82.20;;;;;;4964103;28;20051;-75
2021/11/14 06:15:51;;;;;;;12.75;9.05;;;9.40;82.20;;;;;;4949511;28;20436;-71
2021/11/14 06:18:18;;;;;;;19.17;11.27;;;9.40;82.70;;;;;;4959402;28;20043;-76
2021/11/14 06:20:45;;;;;;;12.55;9.75;;;9.30;83.30;;;;;;4956752;28;20452;-76
2021/11/14 06:23:13;;;;;;;14.73;9.50;;;9.30;83.60;;;;;;4958151;28;20403;-71
2021/11/14 06:25:40;;;;;;;15.13;8.55;;;9.30;83.60;;;;;;4964508;28;20101;-71
2021/11/14 06:28:08;;;;;;;15.95;8.63;;;9.30;83.10;;;;;;4964919;28;20047;-75
2021/11/14 06:30:37;;;;;;;13.82;8.52;;;9.30;82.60;;;;;;4958784;28;20501;-76
2021/11/14 06:33:05;;;;;;;12.85;8.35;;;9.30;82.40;;;;;;4972099;28;20081;-71
2021/11/14 06:35:33;;;;;;;11.70;8.32;;;9.30;82.50;;;;;;4964649;28;20032;-75
2021/11/14 06:38:01;;;;;;;15.07;9.43;;;9.30;82.30;;;;;;4965505;28;20058;-75
2021/11/14 06:40:27;;;;;;;12.45;8.63;;;9.30;82.70;;;;;;4962270;28;20058;-75
2021/11/14 06:42:54;;;;;;;16.88;9.40;;;9.20;82.80;;;;;;4978497;28;20388;-71
2021/11/14 06:45:22;;;;;;;14.05;8.43;;;9.10;83.10;;;;;;4945151;28;20039;-75
2021/11/14 06:47:49;;;;;;;12.80;8.77;;;9.10;83.10;;;;;;4965111;28;20051;-75
2021/11/14 06:50:16;;;;;;;13.52;8.48;;;9.10;83.00;;;;;;4961227;28;20062;-71
2021/11/14 06:52:44;;;;;;;17.38;8.23;;;9.10;82.90;;;;;;4954607;28;20055;-73
2021/11/14 06:55:12;;;;;;;13.02;7.95;;;9.10;82.90;;;;;;4968676;28;20031;-75
2021/11/14 06:57:40;;;;;;;14.75;8.25;;;9.10;82.80;;;;;;4954692;28;20408;-75
2021/11/14 07:00:18;;;;;;;13.15;8.90;;;9.10;82.70;;;;;;4950901;28;20047;-71
2021/11/14 07:02:45;;;;;;;12.52;8.75;;;9.20;82.90;;;;;;4953502;28;20043;-75
2021/11/14 07:05:13;;;;;;;12.30;8.15;;;9.20;82.90;;;;;;4951586;28;20043;-74
2021/11/14 07:07:40;;;;;;;15.73;9.20;;;9.20;82.80;;;;;;4953529;28;20047;-70
2021/11/14 07:10:09;;;;;;;13.00;8.20;;;9.20;82.80;;;;;;4950366;28;20090;-70
2021/11/14 07:12:37;;;;;;;12.50;8.38;;;9.20;82.70;;;;;;4947868;28;20047;-75
2021/11/14 07:15:06;;;;;;;12.93;7.90;;;9.30;82.90;;;;;;4949945;28;20423;-70
2021/11/14 07:17:33;;;;;;;15.45;8.60;;;9.30;82.90;;;;;;4965145;28;20438;-71
2021/11/14 07:20:00;;;;;;;13.57;8.73;;;9.30;83.00;;;;;;4968479;28;20055;-75
2021/11/14 07:22:29;;;;;;;13.80;9.25;;;9.40;82.80;;;;;;4952701;28;20063;-71
2021/11/14 07:24:56;;;;;;;13.63;8.73;;;9.40;82.10;;;;;;4947927;28;20051;-71
2021/11/14 07:27:23;;;;;;;13.07;8.30;;;9.50;82.10;;;;;;4944822;28;20058;-71
2021/11/14 07:29:50;;;;;;;13.55;7.47;;;9.60;81.60;;;;;;4961543;28;20133;-70
2021/11/14 07:32:18;;;;;;;12.23;7.75;;;9.60;81.30;;;;;;4959323;28;20050;-75
2021/11/14 07:34:46;;;;;;;13.82;7.28;;;9.70;80.30;;;;;;4972689;28;20050;-76
2021/11/14 07:37:12;;;;;;;9.32;7.13;;;9.70;80.00;;;;;;4955002;28;20162;-70
2021/11/14 07:39:40;;;;;;;10.40;6.75;;;9.80;78.90;;;;;;4962679;28;20048;-70
2021/11/14 07:42:07;;;;;;;10.02;7.22;;;10.00;77.80;;;;;;4951938;28;20062;-75
2021/11/14 07:44:34;;;;;;;11.98;7.43;;;10.00;77.30;;;;;;4946713;28;20047;-72
2021/11/14 07:47:01;;;;;;;10.38;7.03;;;10.10;77.10;;;;;;4964181;28;20459;-76
2021/11/14 07:49:28;;;;;;;14.73;8.32;;;10.10;76.80;;;;;;4957526;28;20412;-72
2021/11/14 07:51:55;;;;;;;10.77;6.95;;;10.20;77.00;;;;;;4953127;28;20051;-76
2021/11/14 07:54:22;;;;;;;13.15;8.05;;;10.20;76.80;;;;;;4962337;28;20050;-72
2021/11/14 07:56:49;;;;;;;11.88;7.63;;;10.20;77.50;;;;;;4949730;28;20051;-76
2021/11/14 07:59:16;;;;;;;10.82;7.72;;;10.10;77.30;;;;;;4965067;28;20479;-78
2021/11/14 08:01:43;;;;;;;10.15;7.22;;;10.10;77.70;;;;;;4957008;28;20051;-70
2021/11/14 08:04:10;;;;;;;11.38;7.95;;;10.20;78.00;;;;;;4963194;28;20039;-76
2021/11/14 08:06:41;;;;;;;12.75;7.53;;;10.20;77.40;;;;;;4959521;28;20040;-77
2021/11/14 08:09:08;;;;;;;9.38;6.78;;;10.30;77.50;;;;;;4951991;28;20142;-77
2021/11/14 08:11:35;;;;;;;;;;;10.30;78.00;;;;;;4971900;28;20488;-70
2021/11/14 08:14:03;;;;;;;13.57;8.13;;;10.30;77.70;;;;;;4971503;28;19950;-74
2021/11/14 08:16:30;;;;;;;12.18;8.45;;;10.40;77.50;;;;;;4950519;28;20051;-77
2021/11/14 08:18:57;;;;;;;14.07;8.32;;;10.40;77.00;;;;;;4962629;28;20115;-71
2021/11/14 08:21:24;;;;;;;12.65;7.60;;;10.50;76.70;;;;;;4956173;28;20392;-76
2021/11/14 08:23:51;;;;;;;10.35;7.15;;;10.60;75.90;;;;;;4964661;28;20447;-71
2021/11/14 08:26:18;;;;;;;14.70;7.97;;;10.60;76.20;;;;;;4968344;28;20039;-75
2021/11/14 08:28:45;;;;;;;9.52;7.00;;;10.60;75.70;;;;;;4962915;28;20058;-75
2021/11/14 08:31:18;;;;;;;10.95;7.63;;;10.60;75.80;;;;;;4961597;28;20031;-75
2021/11/14 08:33:45;;;;;;;13.73;8.70;;;10.70;75.60;;;;;;4956680;28;20431;-71
2021/11/14 08:36:12;;;;;;;12.20;7.95;;;10.70;75.40;;;;;;4985547;28;20050;-73
2021/11/14 08:38:39;;;;;;;11.30;8.68;;;10.80;74.80;;;;;;4964198;28;20491;-72
2021/11/14 08:41:06;;;;;;;12.85;8.77;;;10.90;75.10;;;;;;4968112;28;20430;-75
2021/11/14 08:43:33;;;;;;;12.57;7.15;;;10.90;74.30;;;;;;4959309;28;20407;-75
2021/11/14 08:46:01;;;;;;;13.48;7.47;;;11.00;73.40;;;;;;4958693;28;20055;-78
2021/11/14 08:48:28;;;;;;;9.57;6.93;;;11.00;73.40;;;;;;4969067;28;20062;-71
2021/11/14 08:50:55;;;;;;;11.40;7.22;;;11.10;72.80;;;;;;4968048;28;20048;-75
2021/11/14 08:53:22;;;;;;;13.40;7.75;;;11.10;72.80;;;;;;4964222;28;20483;-71
2021/11/14 08:55:52;;;;;;;11.85;7.28;;;11.20;72.60;;;;;;4963625;28;20094;-70
2021/11/14 08:58:31;;;;;;;13.45;7.97;;;11.20;72.50;;;;;;4964044;28;20070;-71
2021/11/14 09:00:59;;;;;;;12.80;7.78;;;11.30;71.50;;;;;;4966247;28;20058;-71
2021/11/14 09:03:26;;;;;;;10.90;7.50;;;11.30;72.30;;;;;;4950191;28;20488;-76
2021/11/14 09:05:53;;;;;;;12.60;7.72;;;11.50;72.10;;;;;;4956831;28;20555;-76
2021/11/14 09:08:20;;;;;;;11.38;6.70;;;11.60;73.20;;;;;;4955090;28;20047;-75
2021/11/14 09:10:47;;;;;;;9.80;7.18;;;11.70;71.90;;;;;;4957733;28;20047;-71
2021/11/14 09:13:15;;;;;;;12.23;8.05;;;12.00;71.80;;;;;;4960402;28;20415;-75
2021/11/14 09:15:43;;;;;;;10.68;6.88;;;12.40;69.30;;;;;;4956237;28;20046;-76
2021/11/14 09:18:16;;;;;;;12.25;7.28;;;12.80;68.50;;;;;;4961227;28;20106;-71
2021/11/14 09:20:44;;;;;;;11.80;7.22;;;13.10;66.40;;;;;;4959767;28;20080;-75
2021/11/14 09:23:11;;;;;;;12.07;6.90;;;13.20;65.70;;;;;;4976636;28;20050;-76
2021/11/14 09:25:42;;;;;;;10.20;6.95;;;13.30;63.80;;;;;;4972711;28;20102;-76
2021/11/14 09:28:10;;;;;;;12.00;8.18;;;13.20;64.20;;;;;;4967878;28;20082;-73
2021/11/14 09:30:39;;;;;;;10.65;7.47;;;13.10;63.80;;;;;;4963251;28;20073;-75
2021/11/14 09:33:06;;;;;;;12.35;7.03;;;13.00;64.70;;;;;;4954863;28;20050;-77
2021/11/14 09:35:33;;;;;;;10.45;7.15;;;13.00;64.80;;;;;;4956731;28;20043;-76
2021/11/14 09:38:02;;;;;;;9.10;6.60;;;13.00;65.60;;;;;;4966699;28;20058;-76
2021/11/14 09:40:29;;;;;;;11.10;6.90;;;13.10;64.90;;;;;;4962473;28;20511;-75
2021/11/14 09:42:58;;;;;;;10.55;6.63;;;13.10;64.70;;;;;;4962391;28;20058;-77
2021/11/14 09:45:30;;;;;;;10.35;7.07;;;13.10;62.90;;;;;;4954963;28;20047;-72
2021/11/14 09:47:57;;;;;;;10.80;6.18;;;13.00;64.40;;;;;;4956357;28;20063;-72
2021/11/14 09:50:25;;;;;;;10.60;8.13;;;13.00;64.70;;;;;;4960185;28;20055;-72
2021/11/14 09:52:52;;;;;;;11.32;7.15;;;13.00;65.30;;;;;;4964042;28;20047;-71
2021/11/14 09:55:20;;;;;;;10.45;6.95;;;13.00;65.80;;;;;;4959055;28;20051;-75
2021/11/14 09:57:48;;;;;;;12.05;7.32;;;13.00;66.80;;;;;;4963341;28;20509;-75
2021/11/14 10:00:18;;;;;;;11.75;7.30;;;13.10;66.50;;;;;;4961255;28;20075;-75
2021/11/14 10:02:45;;;;;;;10.68;7.43;;;13.20;65.10;;;;;;4955244;28;20066;-75
2021/11/14 10:05:14;;;;;;;;;;;13.20;64.70;;;;;;4949818;28;20431;-76
2021/11/14 10:07:52;;;;;;;11.68;7.32;;;13.20;63.80;;;;;;4947801;28;20402;-75
2021/11/14 10:10:19;;;;;;;10.32;6.88;;;13.20;63.90;;;;;;4950182;28;20074;-71
2021/11/14 10:13:14;;;;;;;8.80;6.72;;;13.20;63.90;;;;;;4960294;28;20130;-72
2021/11/14 10:15:43;;;;;;;9.20;6.70;;;13.20;65.00;;;;;;4962169;28;20058;-72
2021/11/14 10:18:12;;;;;;;11.52;7.07;;;13.20;65.20;;;;;;4949554;28;20043;-71
2021/11/14 10:20:40;;;;;;;13.63;7.97;;;13.30;65.90;;;;;;4951627;28;20051;-72
2021/11/14 10:23:13;;;;;;;12.05;7.80;;;13.50;66.00;;;;;;4953216;28;20050;-75
2021/11/14 10:25:42;;;;;;;12.93;8.93;;;13.60;64.80;;;;;;4951099;28;20051;-76
2021/11/14 10:28:10;;;;;;;12.73;8.43;;;13.70;64.80;;;;;;4955093;28;20051;-72
2021/11/14 10:30:41;;;;;;;12.05;9.13;;;13.80;65.70;;;;;;4960500;28;20062;-76
2021/11/14 10:33:11;;;;;;;12.77;9.30;;;13.90;65.90;;;;;;4944670;29;21060;-77
2021/11/14 10:35:41;;;;;;;11.60;7.57;;;13.90;66.20;;;;;;4947690;28;20046;-75
2021/11/14 10:38:19;;;;;;;10.43;7.22;;;13.90;65.50;;;;;;4949453;28;20039;-71
2021/11/14 10:40:49;;;;;;;11.35;7.10;;;14.00;63.20;;;;;;4953549;28;20047;-72
2021/11/14 10:43:21;;;;;;;12.13;7.93;;;14.00;62.60;;;;;;4950823;28;20050;-71
2021/11/14 10:45:50;;;;;;;13.02;8.00;;;13.90;63.50;;;;;;4949268;28;20043;-77
2021/11/14 10:48:23;;;;;;;18.20;9.85;;;13.90;64.00;;;;;;4947314;28;20078;-71
2021/11/14 10:50:53;;;;;;;12.35;8.35;;;13.80;63.30;;;;;;4952027;28;20051;-73
2021/11/14 10:53:23;;;;;;;10.70;6.88;;;13.80;63.10;;;;;;4951166;28;20044;-72
2021/11/14 10:55:58;;;;;;;11.40;7.68;;;13.70;63.10;;;;;;4952428;28;20058;-71
2021/11/14 10:58:27;;;;;;;14.13;8.25;;;13.50;64.00;;;;;;4959461;28;20043;-74
2021/11/14 11:00:59;;;;;;;12.93;8.60;;;13.50;63.30;;;;;;4958476;28;20063;-72
2021/11/14 11:03:33;;;;;;;12.90;8.05;;;13.40;64.00;;;;;;4947025;28;20054;-71
2021/11/14 11:06:02;;;;;;;13.52;7.78;;;13.40;64.30;;;;;;4957856;28;20137;-70
2021/11/14 11:08:30;;;;;;;12.18;8.25;;;13.30;65.40;;;;;;4971307;28;20054;-77
2021/11/14 11:11:06;;;;;;;15.80;8.10;;;13.30;65.40;;;;;;4961230;28;20047;-78
2021/11/14 11:13:41;;;;;;;11.40;8.27;;;13.20;66.20;;;;;;4966246;28;20095;-79
2021/11/14 11:16:29;;;;;;;15.05;8.27;;;13.00;67.10;;;;;;4948369;28;20094;-75
2021/11/14 11:19:01;;;;;;;13.55;7.63;;;13.00;67.70;;;;;;4947911;28;20453;-70
2021/11/14 11:21:40;;;;;;;13.23;8.70;;;12.90;68.70;;;;;;4954357;28;20044;-75
2021/11/14 11:24:13;;;;;;;13.02;8.57;;;12.80;68.90;;;;;;4955852;28;20515;-69
2021/11/14 11:27:10;;;;;;;13.02;9.50;;;12.70;70.10;;;;;;4962416;28;20043;-74
2021/11/14 11:29:40;;;;;;;14.48;8.68;;;12.50;71.30;;;;;;4963798;28;20047;-74
2021/11/14 11:32:12;;;;;;;15.35;9.95;;;12.40;72.50;;;;;;4958987;28;20435;-70
2021/11/14 11:34:42;;;;;;;18.60;10.85;;;12.20;73.20;;;;;;4971498;28;20047;-70
2021/11/14 11:37:10;;;;;;;21.10;11.38;;;12.10;74.00;;;;;;4947416;28;20034;-69
2021/11/14 11:39:38;;;;;;;26.95;14.98;;;12.00;74.90;;;;;;4955775;28;20047;-69
2021/11/14 11:42:06;;;;;;;21.40;13.23;;;12.00;75.90;;;;;;4959164;28;20423;-69
2021/11/14 11:44:55;;;;;;;19.23;11.85;;;11.90;76.50;;;;;;4946030;28;20488;-69
2021/11/14 11:47:23;;;;;;;28.85;17.20;;;11.80;77.40;;;;;;4958933;28;20113;-69
2021/11/14 11:49:53;;;;;;;27.05;15.73;;;11.70;78.00;;;;;;4965833;28;20451;-70
2021/11/14 11:52:20;;;;;;;32.78;17.02;;;11.60;78.40;;;;;;4954974;28;20047;-70
2021/11/14 11:54:49;;;;;;;31.38;18.35;;;11.50;80.80;;;;;;4955451;28;20542;-72
2021/11/14 11:57:19;;;;;;;27.48;15.27;;;11.40;82.40;;;;;;4954054;28;20039;-71
2021/11/14 11:59:54;;;;;;;29.00;15.27;;;11.40;83.20;;;;;;4955497;28;20473;-71
2021/11/14 12:02:26;;;;;;;28.20;14.90;;;11.40;83.90;;;;;;4958313;28;20059;-71
2021/11/14 12:04:57;;;;;;;27.80;14.85;;;11.30;85.20;;;;;;4956409;28;20087;-72
2021/11/14 12:07:30;;;;;;;28.92;16.20;;;11.30;85.70;;;;;;4969268;28;20145;-71
2021/11/14 12:09:58;;;;;;;32.13;18.15;;;11.30;85.80;;;;;;4963640;28;20452;-76
2021/11/14 12:12:32;;;;;;;31.48;18.25;;;11.30;86.00;;;;;;4957856;28;20047;-71
2021/11/14 12:15:13;;;;;;;23.98;14.60;;;11.30;86.80;;;;;;4955041;28;20050;-71
2021/11/14 12:17:58;;;;;;;20.63;13.15;;;11.30;86.60;;;;;;4959767;28;20094;-70
2021/11/14 12:20:38;;;;;;;23.23;13.65;;;11.30;86.90;;;;;;4957419;28;20035;-76
2021/11/14 12:23:20;;;;;;;20.98;12.95;;;11.30;86.90;;;;;;4956136;28;20047;-76
2021/11/14 12:25:50;;;;;;;21.70;12.95;;;11.30;87.00;;;;;;4959493;28;20062;-70
2021/11/14 12:28:24;;;;;;;21.77;13.93;;;11.30;87.30;;;;;;4972867;28;20106;-70
2021/11/14 12:31:02;;;;;;;20.50;14.07;;;11.30;88.10;;;;;;4954442;28;20043;-76
2021/11/14 12:33:32;;;;;;;21.15;12.95;;;11.30;87.50;;;;;;4955540;28;20044;-70
2021/11/14 12:36:09;;;;;;;20.10;13.63;;;11.20;87.40;;;;;;4961427;28;20043;-75
2021/11/14 12:38:37;;;;;;;23.92;14.15;;;11.20;87.60;;;;;;4959575;28;20039;-75
2021/11/14 12:41:08;;;;;;;22.42;14.90;;;11.10;88.50;;;;;;4957831;28;20455;-71
2021/11/14 12:43:55;;;;;;;20.52;14.02;;;11.10;88.70;;;;;;4957565;28;20051;-75
2021/11/14 12:46:24;;;;;;;24.23;14.95;;;11.10;89.00;;;;;;4973993;28;20051;-74
2021/11/14 12:48:52;;;;;;;23.60;14.80;;;11.00;89.20;;;;;;4960006;28;20051;-75
2021/11/14 12:51:23;;;;;;;20.48;14.93;;;11.00;89.20;;;;;;4966420;28;20139;-72